sensor_id;sensor_type;location;lat;lon;timestamp;temperature;humidity
10129;DHT22;5104;50.720;7.044;2023-04-09T00:02:17;7.90;99.90
10129;DHT22;5104;50.720;7.044;2023-04-09T00:04:45;7.90;99.90
10129;DHT22;5104;50.720;7.044;2023-04-09T00:07:12;7.80;99.90
10129;DHT22;5104;50.720;7.044;2023-04-09T00:09:39;7.80;99.90
10129;DHT22;5104;50.720;7.044;2023-04-09T00:12:06;7.80;99.90
10129;DHT22;5104;50.720;7.044;2023-04-09T00:14:33;7.80;99.90
10129;DHT22;5104;50.720;7.044;2023-04-09T00:16:59;7.70;99.90
10129;DHT22;5104;50.720;7.044;2023-04-09T00:19:26;7.70;99.90
10129;DHT22;5104;50.720;7.044;2023-04-09T00:21:55;7.60;99.90
10129;DHT22;5104;50.720;7.044;2023-04-09T00:24:21;7.60;99.90
10129;DHT22;5104;50.720;7.044;2023-04-09T00:26:48;7.60;99.90
10129;DHT22;5104;50.720;7.044;2023-04-09T00:29:15;7.50;99.90
10129;DHT22;5104;50.720;7.044;2023-04-09T00:31:42;7.50;99.90
10129;DHT22;5104;50.720;7.044;2023-04-09T00:34:09;7.40;99.90
10129;DHT22;5104;50.720;7.044;2023-04-09T00:36:36;7.40;99.90
10129;DHT22;5104;50.720;7.044;2023-04-09T00:39:04;7.40;99.90
10129;DHT22;5104;50.720;7.044;2023-04-09T00:41:31;7.40;99.90
10129;DHT22;5104;50.720;7.044;2023-04-09T00:43:58;7.40;99.90
10129;DHT22;5104;50.720;7.044;2023-04-09T00:46:25;7.40;99.90
10129;DHT22;5104;50.720;7.044;2023-04-09T00:48:52;7.40;99.90
10129;DHT22;5104;50.720;7.044;2023-04-09T00:51:19;7.40;99.90
10129;DHT22;5104;50.720;7.044;2023-04-09T00:53:46;7.40;99.90
10129;DHT22;5104;50.720;7.044;2023-04-09T00:56:15;7.40;99.90
10129;DHT22;5104;50.720;7.044;2023-04-09T00:58:43;7.40;99.90
10129;DHT22;5104;50.720;7.044;2023-04-09T01:01:09;7.40;99.90
10129;DHT22;5104;50.720;7.044;2023-04-09T01:03:36;7.50;99.90
10129;DHT22;5104;50.720;7.044;2023-04-09T01:06:07;7.50;99.90
10129;DHT22;5104;50.720;7.044;2023-04-09T01:08:46;7.50;99.90
10129;DHT22;5104;50.720;7.044;2023-04-09T01:11:23;7.50;99.90
10129;DHT22;5104;50.720;7.044;2023-04-09T01:14:00;7.50;99.90
10129;DHT22;5104;50.720;7.044;2023-04-09T01:16:30;7.50;99.90
10129;DHT22;5104;50.720;7.044;2023-04-09T01:19:01;7.40;99.90
10129;DHT22;5104;50.720;7.044;2023-04-09T01:21:32;7.40;99.90
10129;DHT22;5104;50.720;7.044;2023-04-09T01:24:13;7.40;99.90
10129;DHT22;5104;50.720;7.044;2023-04-09T01:26:54;7.40;99.90
10129;DHT22;5104;50.720;7.044;2023-04-09T01:29:24;7.40;99.90
10129;DHT22;5104;50.720;7.044;2023-04-09T01:31:53;7.40;99.90
10129;DHT22;5104;50.720;7.044;2023-04-09T01:34:21;7.40;99.90
10129;DHT22;5104;50.720;7.044;2023-04-09T01:36:52;7.40;99.90
10129;DHT22;5104;50.720;7.044;2023-04-09T01:39:20;7.40;99.90
10129;DHT22;5104;50.720;7.044;2023-04-09T01:41:48;7.30;99.90
10129;DHT22;5104;50.720;7.044;2023-04-09T01:44:16;7.30;99.90
10129;DHT22;5104;50.720;7.044;2023-04-09T01:46:45;7.30;99.90
10129;DHT22;5104;50.720;7.044;2023-04-09T01:49:13;7.30;99.90
10129;DHT22;5104;50.720;7.044;2023-04-09T01:51:40;7.30;99.90
10129;DHT22;5104;50.720;7.044;2023-04-09T01:54:07;7.20;99.90
10129;DHT22;5104;50.720;7.044;2023-04-09T01:56:41;7.20;99.90
10129;DHT22;5104;50.720;7.044;2023-04-09T01:59:08;7.20;99.90
10129;DHT22;5104;50.720;7.044;2023-04-09T02:01:40;7.20;99.90
10129;DHT22;5104;50.720;7.044;2023-04-09T02:04:19;7.20;99.90
10129;DHT22;5104;50.720;7.044;2023-04-09T02:06:52;7.20;99.90
10129;DHT22;5104;50.720;7.044;2023-04-09T02:09:23;7.20;99.90
10129;DHT22;5104;50.720;7.044;2023-04-09T02:11:51;7.20;99.90
10129;DHT22;5104;50.720;7.044;2023-04-09T02:14:19;7.20;99.90
10129;DHT22;5104;50.720;7.044;2023-04-09T02:16:47;7.20;99.90
10129;DHT22;5104;50.720;7.044;2023-04-09T02:19:16;7.20;99.90
10129;DHT22;5104;50.720;7.044;2023-04-09T02:21:43;7.20;99.90
10129;DHT22;5104;50.720;7.044;2023-04-09T02:24:09;7.20;99.90
10129;DHT22;5104;50.720;7.044;2023-04-09T02:26:36;7.30;99.90
10129;DHT22;5104;50.720;7.044;2023-04-09T02:29:03;7.20;99.90
10129;DHT22;5104;50.720;7.044;2023-04-09T02:31:30;7.20;99.90
10129;DHT22;5104;50.720;7.044;2023-04-09T02:33:57;7.20;99.90
10129;DHT22;5104;50.720;7.044;2023-04-09T02:36:25;7.20;99.90
10129;DHT22;5104;50.720;7.044;2023-04-09T02:38:52;7.10;99.90
10129;DHT22;5104;50.720;7.044;2023-04-09T02:41:19;7.10;99.90
10129;DHT22;5104;50.720;7.044;2023-04-09T02:43:46;7.10;99.90
10129;DHT22;5104;50.720;7.044;2023-04-09T02:46:13;7.00;99.90
10129;DHT22;5104;50.720;7.044;2023-04-09T02:48:40;7.00;99.90
10129;DHT22;5104;50.720;7.044;2023-04-09T02:51:07;7.00;99.90
10129;DHT22;5104;50.720;7.044;2023-04-09T02:53:35;7.00;99.90
10129;DHT22;5104;50.720;7.044;2023-04-09T02:56:05;7.00;99.90
10129;DHT22;5104;50.720;7.044;2023-04-09T02:58:32;6.90;99.90
10129;DHT22;5104;50.720;7.044;2023-04-09T03:00:59;6.90;99.90
10129;DHT22;5104;50.720;7.044;2023-04-09T03:03:25;6.80;99.90
10129;DHT22;5104;50.720;7.044;2023-04-09T03:05:52;6.80;99.90
10129;DHT22;5104;50.720;7.044;2023-04-09T03:08:19;6.80;99.90
10129;DHT22;5104;50.720;7.044;2023-04-09T03:10:48;6.70;99.90
10129;DHT22;5104;50.720;7.044;2023-04-09T03:13:14;6.70;99.90
10129;DHT22;5104;50.720;7.044;2023-04-09T03:15:41;6.70;99.90
10129;DHT22;5104;50.720;7.044;2023-04-09T03:18:08;6.70;99.90
10129;DHT22;5104;50.720;7.044;2023-04-09T03:20:36;6.60;99.90
10129;DHT22;5104;50.720;7.044;2023-04-09T03:23:03;6.70;99.90
10129;DHT22;5104;50.720;7.044;2023-04-09T03:25:30;6.60;99.90
10129;DHT22;5104;50.720;7.044;2023-04-09T03:27:59;6.60;99.90
10129;DHT22;5104;50.720;7.044;2023-04-09T03:30:25;6.60;99.90
10129;DHT22;5104;50.720;7.044;2023-04-09T03:32:52;6.50;99.90
10129;DHT22;5104;50.720;7.044;2023-04-09T03:35:19;6.50;99.90
10129;DHT22;5104;50.720;7.044;2023-04-09T03:37:46;6.50;99.90
10129;DHT22;5104;50.720;7.044;2023-04-09T03:40:13;6.50;99.90
10129;DHT22;5104;50.720;7.044;2023-04-09T03:42:41;6.50;99.90
10129;DHT22;5104;50.720;7.044;2023-04-09T03:45:10;6.50;99.90
10129;DHT22;5104;50.720;7.044;2023-04-09T03:47:37;6.60;99.90
10129;DHT22;5104;50.720;7.044;2023-04-09T03:50:05;6.60;99.90
10129;DHT22;5104;50.720;7.044;2023-04-09T03:52:32;6.60;99.90
10129;DHT22;5104;50.720;7.044;2023-04-09T03:54:58;6.70;99.90
10129;DHT22;5104;50.720;7.044;2023-04-09T03:57:25;6.70;99.90
10129;DHT22;5104;50.720;7.044;2023-04-09T03:59:52;6.70;99.90
10129;DHT22;5104;50.720;7.044;2023-04-09T04:02:20;6.80;99.90
10129;DHT22;5104;50.720;7.044;2023-04-09T04:04:47;6.80;99.90
10129;DHT22;5104;50.720;7.044;2023-04-09T04:07:14;6.80;99.90
10129;DHT22;5104;50.720;7.044;2023-04-09T04:09:41;6.90;99.90
10129;DHT22;5104;50.720;7.044;2023-04-09T04:12:08;6.80;99.90
10129;DHT22;5104;50.720;7.044;2023-04-09T04:14:34;6.70;99.90
10129;DHT22;5104;50.720;7.044;2023-04-09T04:17:01;6.70;99.90
10129;DHT22;5104;50.720;7.044;2023-04-09T04:19:30;6.70;99.90
10129;DHT22;5104;50.720;7.044;2023-04-09T04:21:56;6.70;99.90
10129;DHT22;5104;50.720;7.044;2023-04-09T04:24:23;6.70;99.90
10129;DHT22;5104;50.720;7.044;2023-04-09T04:26:50;6.70;99.90
10129;DHT22;5104;50.720;7.044;2023-04-09T04:29:17;6.70;99.90
10129;DHT22;5104;50.720;7.044;2023-04-09T04:31:44;6.70;99.90
10129;DHT22;5104;50.720;7.044;2023-04-09T04:34:11;6.70;99.90
10129;DHT22;5104;50.720;7.044;2023-04-09T04:36:39;6.70;99.90
10129;DHT22;5104;50.720;7.044;2023-04-09T04:39:06;6.70;99.90
10129;DHT22;5104;50.720;7.044;2023-04-09T04:41:33;6.60;99.90
10129;DHT22;5104;50.720;7.044;2023-04-09T04:44:00;6.60;99.90
10129;DHT22;5104;50.720;7.044;2023-04-09T04:46:26;6.60;99.90
10129;DHT22;5104;50.720;7.044;2023-04-09T04:48:53;6.60;99.90
10129;DHT22;5104;50.720;7.044;2023-04-09T04:51:20;6.60;99.90
10129;DHT22;5104;50.720;7.044;2023-04-09T04:53:48;6.60;99.90
10129;DHT22;5104;50.720;7.044;2023-04-09T04:56:15;6.60;99.90
10129;DHT22;5104;50.720;7.044;2023-04-09T04:58:42;6.50;99.90
10129;DHT22;5104;50.720;7.044;2023-04-09T05:01:09;6.60;99.90
10129;DHT22;5104;50.720;7.044;2023-04-09T05:03:36;6.60;99.90
10129;DHT22;5104;50.720;7.044;2023-04-09T05:06:03;6.60;99.90
10129;DHT22;5104;50.720;7.044;2023-04-09T05:08:30;6.60;99.90
10129;DHT22;5104;50.720;7.044;2023-04-09T05:10:58;6.60;99.90
10129;DHT22;5104;50.720;7.044;2023-04-09T05:13:25;6.60;99.90
10129;DHT22;5104;50.720;7.044;2023-04-09T05:15:52;6.70;99.90
10129;DHT22;5104;50.720;7.044;2023-04-09T05:18:19;6.60;99.90
10129;DHT22;5104;50.720;7.044;2023-04-09T05:20:46;6.70;99.90
10129;DHT22;5104;50.720;7.044;2023-04-09T05:23:12;6.70;99.90
10129;DHT22;5104;50.720;7.044;2023-04-09T05:25:40;6.80;99.90
10129;DHT22;5104;50.720;7.044;2023-04-09T05:28:08;6.80;99.90
10129;DHT22;5104;50.720;7.044;2023-04-09T05:30:36;6.90;99.90
10129;DHT22;5104;50.720;7.044;2023-04-09T05:33:03;7.00;99.90
10129;DHT22;5104;50.720;7.044;2023-04-09T05:35:29;6.90;99.90
10129;DHT22;5104;50.720;7.044;2023-04-09T05:37:56;7.00;99.90
10129;DHT22;5104;50.720;7.044;2023-04-09T05:40:23;7.10;99.90
10129;DHT22;5104;50.720;7.044;2023-04-09T05:42:50;7.10;99.90
10129;DHT22;5104;50.720;7.044;2023-04-09T05:45:18;7.20;99.90
10129;DHT22;5104;50.720;7.044;2023-04-09T05:47:45;7.30;99.90
10129;DHT22;5104;50.720;7.044;2023-04-09T05:50:12;7.30;99.90
10129;DHT22;5104;50.720;7.044;2023-04-09T05:52:39;7.40;99.90
10129;DHT22;5104;50.720;7.044;2023-04-09T05:55:06;7.40;99.90
10129;DHT22;5104;50.720;7.044;2023-04-09T05:57:34;7.50;99.90
10129;DHT22;5104;50.720;7.044;2023-04-09T06:00:01;7.60;99.90
10129;DHT22;5104;50.720;7.044;2023-04-09T06:02:29;7.60;99.90
10129;DHT22;5104;50.720;7.044;2023-04-09T06:04:56;7.60;99.90
10129;DHT22;5104;50.720;7.044;2023-04-09T06:07:23;7.60;99.90
10129;DHT22;5104;50.720;7.044;2023-04-09T06:09:50;7.70;99.90
10129;DHT22;5104;50.720;7.044;2023-04-09T06:12:16;7.80;99.90
10129;DHT22;5104;50.720;7.044;2023-04-09T06:14:43;7.80;99.90
10129;DHT22;5104;50.720;7.044;2023-04-09T06:17:10;7.90;99.90
10129;DHT22;5104;50.720;7.044;2023-04-09T06:19:38;8.00;99.90
10129;DHT22;5104;50.720;7.044;2023-04-09T06:22:07;8.10;99.90
10129;DHT22;5104;50.720;7.044;2023-04-09T06:24:35;8.20;99.90
10129;DHT22;5104;50.720;7.044;2023-04-09T06:27:02;8.30;99.90
10129;DHT22;5104;50.720;7.044;2023-04-09T06:29:28;8.30;99.90
10129;DHT22;5104;50.720;7.044;2023-04-09T06:31:55;8.40;99.90
10129;DHT22;5104;50.720;7.044;2023-04-09T06:34:22;8.50;99.90
10129;DHT22;5104;50.720;7.044;2023-04-09T06:36:50;8.60;99.90
10129;DHT22;5104;50.720;7.044;2023-04-09T06:39:17;8.50;99.90
10129;DHT22;5104;50.720;7.044;2023-04-09T06:41:44;8.50;99.90
10129;DHT22;5104;50.720;7.044;2023-04-09T06:44:11;8.50;99.90
10129;DHT22;5104;50.720;7.044;2023-04-09T06:46:38;8.60;99.90
10129;DHT22;5104;50.720;7.044;2023-04-09T06:49:05;8.70;99.90
10129;DHT22;5104;50.720;7.044;2023-04-09T06:51:31;8.70;99.90
10129;DHT22;5104;50.720;7.044;2023-04-09T06:54:00;8.80;99.90
10129;DHT22;5104;50.720;7.044;2023-04-09T06:56:27;8.90;99.90
10129;DHT22;5104;50.720;7.044;2023-04-09T06:58:53;8.90;99.90
10129;DHT22;5104;50.720;7.044;2023-04-09T07:01:20;9.00;99.90
10129;DHT22;5104;50.720;7.044;2023-04-09T07:03:47;9.10;99.90
10129;DHT22;5104;50.720;7.044;2023-04-09T07:06:14;9.20;99.90
10129;DHT22;5104;50.720;7.044;2023-04-09T07:08:41;9.40;99.90
10129;DHT22;5104;50.720;7.044;2023-04-09T07:11:09;9.40;99.90
10129;DHT22;5104;50.720;7.044;2023-04-09T07:13:36;9.30;99.90
10129;DHT22;5104;50.720;7.044;2023-04-09T07:16:04;9.40;99.90
10129;DHT22;5104;50.720;7.044;2023-04-09T07:18:30;9.50;99.90
10129;DHT22;5104;50.720;7.044;2023-04-09T07:20:57;9.50;99.90
10129;DHT22;5104;50.720;7.044;2023-04-09T07:23:24;9.60;99.90
10129;DHT22;5104;50.720;7.044;2023-04-09T07:25:51;9.70;99.90
10129;DHT22;5104;50.720;7.044;2023-04-09T07:28:19;10.00;99.90
10129;DHT22;5104;50.720;7.044;2023-04-09T07:30:46;10.20;99.90
10129;DHT22;5104;50.720;7.044;2023-04-09T07:33:13;10.40;1.00
10129;DHT22;5104;50.720;7.044;2023-04-09T07:35:40;10.60;1.00
10129;DHT22;5104;50.720;7.044;2023-04-09T07:38:07;10.60;1.00
10129;DHT22;5104;50.720;7.044;2023-04-09T07:40:34;10.70;99.90
10129;DHT22;5104;50.720;7.044;2023-04-09T07:43:02;10.80;1.00
10129;DHT22;5104;50.720;7.044;2023-04-09T07:45:30;10.80;99.90
10129;DHT22;5104;50.720;7.044;2023-04-09T07:47:57;10.90;99.90
10129;DHT22;5104;50.720;7.044;2023-04-09T07:50:24;11.00;1.00
10129;DHT22;5104;50.720;7.044;2023-04-09T07:52:51;11.10;1.00
10129;DHT22;5104;50.720;7.044;2023-04-09T07:55:18;11.20;1.00
10129;DHT22;5104;50.720;7.044;2023-04-09T07:57:45;11.40;1.00
10129;DHT22;5104;50.720;7.044;2023-04-09T08:00:13;11.60;1.00
10129;DHT22;5104;50.720;7.044;2023-04-09T08:02:41;11.50;99.90
10129;DHT22;5104;50.720;7.044;2023-04-09T08:05:09;11.40;99.90
10129;DHT22;5104;50.720;7.044;2023-04-09T08:07:36;11.50;33.50
10129;DHT22;5104;50.720;7.044;2023-04-09T08:10:03;11.70;99.90
10129;DHT22;5104;50.720;7.044;2023-04-09T08:12:30;11.70;99.90
10129;DHT22;5104;50.720;7.044;2023-04-09T08:14:57;11.80;99.90
10129;DHT22;5104;50.720;7.044;2023-04-09T08:17:24;11.80;99.90
10129;DHT22;5104;50.720;7.044;2023-04-09T08:19:53;11.90;1.00
10129;DHT22;5104;50.720;7.044;2023-04-09T08:22:20;11.80;1.00
10129;DHT22;5104;50.720;7.044;2023-04-09T08:24:50;11.80;1.00
10129;DHT22;5104;50.720;7.044;2023-04-09T08:27:18;11.90;1.00
10129;DHT22;5104;50.720;7.044;2023-04-09T08:29:45;12.00;1.00
10129;DHT22;5104;50.720;7.044;2023-04-09T08:32:12;12.00;1.00
10129;DHT22;5104;50.720;7.044;2023-04-09T08:34:39;12.20;1.00
10129;DHT22;5104;50.720;7.044;2023-04-09T08:37:07;12.20;1.00
10129;DHT22;5104;50.720;7.044;2023-04-09T08:39:35;12.30;1.00
10129;DHT22;5104;50.720;7.044;2023-04-09T08:42:01;12.40;1.00
10129;DHT22;5104;50.720;7.044;2023-04-09T08:44:29;12.50;1.00
10129;DHT22;5104;50.720;7.044;2023-04-09T08:46:56;12.70;1.00
10129;DHT22;5104;50.720;7.044;2023-04-09T08:49:25;12.60;1.00
10129;DHT22;5104;50.720;7.044;2023-04-09T08:51:52;12.50;1.00
10129;DHT22;5104;50.720;7.044;2023-04-09T08:54:20;12.60;1.00
10129;DHT22;5104;50.720;7.044;2023-04-09T08:56:51;12.40;1.00
10129;DHT22;5104;50.720;7.044;2023-04-09T08:59:17;12.40;1.00
10129;DHT22;5104;50.720;7.044;2023-04-09T09:01:45;12.40;1.00
10129;DHT22;5104;50.720;7.044;2023-04-09T09:04:17;12.50;1.00
10129;DHT22;5104;50.720;7.044;2023-04-09T09:06:44;12.50;1.00
10129;DHT22;5104;50.720;7.044;2023-04-09T09:09:12;12.60;1.00
10129;DHT22;5104;50.720;7.044;2023-04-09T09:11:43;12.60;1.00
10129;DHT22;5104;50.720;7.044;2023-04-09T09:14:11;12.60;1.00
10129;DHT22;5104;50.720;7.044;2023-04-09T09:16:39;12.60;1.00
10129;DHT22;5104;50.720;7.044;2023-04-09T09:19:08;12.70;1.00
10129;DHT22;5104;50.720;7.044;2023-04-09T09:21:35;12.90;1.00
10129;DHT22;5104;50.720;7.044;2023-04-09T09:24:15;13.00;1.00
10129;DHT22;5104;50.720;7.044;2023-04-09T09:26:44;13.00;1.00
10129;DHT22;5104;50.720;7.044;2023-04-09T09:29:10;13.20;1.00
10129;DHT22;5104;50.720;7.044;2023-04-09T09:31:45;13.40;1.00
10129;DHT22;5104;50.720;7.044;2023-04-09T09:34:14;13.60;99.90
10129;DHT22;5104;50.720;7.044;2023-04-09T09:36:41;13.60;1.00
10129;DHT22;5104;50.720;7.044;2023-04-09T09:39:09;13.20;99.90
10129;DHT22;5104;50.720;7.044;2023-04-09T09:41:37;13.30;1.00
10129;DHT22;5104;50.720;7.044;2023-04-09T09:44:07;13.50;1.00
10129;DHT22;5104;50.720;7.044;2023-04-09T09:46:36;13.80;1.00
10129;DHT22;5104;50.720;7.044;2023-04-09T09:49:03;13.70;99.90
10129;DHT22;5104;50.720;7.044;2023-04-09T09:51:31;13.80;99.90
10129;DHT22;5104;50.720;7.044;2023-04-09T09:53:59;13.60;99.90
10129;DHT22;5104;50.720;7.044;2023-04-09T09:56:30;13.40;99.90
10129;DHT22;5104;50.720;7.044;2023-04-09T09:59:12;13.60;99.90
10129;DHT22;5104;50.720;7.044;2023-04-09T10:01:39;13.90;99.90
10129;DHT22;5104;50.720;7.044;2023-04-09T10:04:08;13.80;99.90
10129;DHT22;5104;50.720;7.044;2023-04-09T10:06:41;14.10;99.90
10129;DHT22;5104;50.720;7.044;2023-04-09T10:09:09;14.30;99.90
10129;DHT22;5104;50.720;7.044;2023-04-09T10:11:37;14.30;99.90
10129;DHT22;5104;50.720;7.044;2023-04-09T10:14:07;14.40;99.90
10129;DHT22;5104;50.720;7.044;2023-04-09T10:16:35;14.40;99.90
10129;DHT22;5104;50.720;7.044;2023-04-09T10:19:03;14.30;99.90
10129;DHT22;5104;50.720;7.044;2023-04-09T10:21:37;14.50;99.90
10129;DHT22;5104;50.720;7.044;2023-04-09T10:24:06;14.60;99.90
10129;DHT22;5104;50.720;7.044;2023-04-09T10:26:34;14.60;99.90
10129;DHT22;5104;50.720;7.044;2023-04-09T10:29:05;14.70;99.90
10129;DHT22;5104;50.720;7.044;2023-04-09T10:31:47;14.30;99.90
10129;DHT22;5104;50.720;7.044;2023-04-09T10:34:17;14.40;99.90
10129;DHT22;5104;50.720;7.044;2023-04-09T10:36:50;14.40;99.90
10129;DHT22;5104;50.720;7.044;2023-04-09T10:39:18;14.60;99.90
10129;DHT22;5104;50.720;7.044;2023-04-09T10:41:45;14.70;99.90
10129;DHT22;5104;50.720;7.044;2023-04-09T10:44:20;14.80;99.90
10129;DHT22;5104;50.720;7.044;2023-04-09T10:46:52;14.80;99.90
10129;DHT22;5104;50.720;7.044;2023-04-09T10:49:20;14.60;99.90
10129;DHT22;5104;50.720;7.044;2023-04-09T10:51:50;14.50;99.90
10129;DHT22;5104;50.720;7.044;2023-04-09T10:54:39;14.30;99.90
10129;DHT22;5104;50.720;7.044;2023-04-09T10:57:11;14.60;99.90
10129;DHT22;5104;50.720;7.044;2023-04-09T10:59:40;14.90;99.90
10129;DHT22;5104;50.720;7.044;2023-04-09T11:02:09;15.00;99.90
10129;DHT22;5104;50.720;7.044;2023-04-09T11:04:57;15.10;99.90
10129;DHT22;5104;50.720;7.044;2023-04-09T11:07:29;14.80;99.90
10129;DHT22;5104;50.720;7.044;2023-04-09T11:09:56;14.40;99.90
10129;DHT22;5104;50.720;7.044;2023-04-09T11:12:23;14.70;99.90
10129;DHT22;5104;50.720;7.044;2023-04-09T11:14:49;14.70;99.90
10129;DHT22;5104;50.720;7.044;2023-04-09T11:17:18;15.00;99.90
10129;DHT22;5104;50.720;7.044;2023-04-09T11:19:46;15.70;99.90
10129;DHT22;5104;50.720;7.044;2023-04-09T11:22:13;15.50;99.90
10129;DHT22;5104;50.720;7.044;2023-04-09T11:24:41;15.30;99.90
10129;DHT22;5104;50.720;7.044;2023-04-09T11:27:08;15.40;99.90
10129;DHT22;5104;50.720;7.044;2023-04-09T11:29:35;15.50;99.90
10129;DHT22;5104;50.720;7.044;2023-04-09T11:32:02;15.50;99.90
10129;DHT22;5104;50.720;7.044;2023-04-09T11:34:32;15.70;99.90
10129;DHT22;5104;50.720;7.044;2023-04-09T11:36:58;15.40;99.90
10129;DHT22;5104;50.720;7.044;2023-04-09T11:39:30;15.60;99.90
10129;DHT22;5104;50.720;7.044;2023-04-09T11:41:56;15.50;99.90
10129;DHT22;5104;50.720;7.044;2023-04-09T11:44:23;16.20;99.90
10129;DHT22;5104;50.720;7.044;2023-04-09T11:46:50;15.90;99.90
10129;DHT22;5104;50.720;7.044;2023-04-09T11:49:17;16.00;99.90
10129;DHT22;5104;50.720;7.044;2023-04-09T11:51:46;16.00;99.90
10129;DHT22;5104;50.720;7.044;2023-04-09T11:54:13;15.60;99.90
10129;DHT22;5104;50.720;7.044;2023-04-09T11:56:40;15.70;99.90
10129;DHT22;5104;50.720;7.044;2023-04-09T11:59:07;15.50;99.90
10129;DHT22;5104;50.720;7.044;2023-04-09T12:01:35;15.90;99.90
10129;DHT22;5104;50.720;7.044;2023-04-09T12:04:02;16.10;99.90
10129;DHT22;5104;50.720;7.044;2023-04-09T12:06:29;16.00;99.90
10129;DHT22;5104;50.720;7.044;2023-04-09T12:08:58;16.00;99.90
10129;DHT22;5104;50.720;7.044;2023-04-09T12:11:27;16.10;99.90
10129;DHT22;5104;50.720;7.044;2023-04-09T12:13:58;16.00;99.90
10129;DHT22;5104;50.720;7.044;2023-04-09T12:16:25;15.70;99.90
10129;DHT22;5104;50.720;7.044;2023-04-09T12:18:52;15.70;99.90
10129;DHT22;5104;50.720;7.044;2023-04-09T12:21:23;15.90;99.90
10129;DHT22;5104;50.720;7.044;2023-04-09T12:23:50;15.70;99.90
10129;DHT22;5104;50.720;7.044;2023-04-09T12:26:18;16.00;99.90
10129;DHT22;5104;50.720;7.044;2023-04-09T12:28:45;16.20;99.90
10129;DHT22;5104;50.720;7.044;2023-04-09T12:31:12;16.60;99.90
10129;DHT22;5104;50.720;7.044;2023-04-09T12:33:39;16.00;99.90
10129;DHT22;5104;50.720;7.044;2023-04-09T12:36:07;16.00;99.90
10129;DHT22;5104;50.720;7.044;2023-04-09T12:38:34;16.20;99.90
10129;DHT22;5104;50.720;7.044;2023-04-09T12:41:01;16.00;99.90
10129;DHT22;5104;50.720;7.044;2023-04-09T12:43:29;16.10;99.90
10129;DHT22;5104;50.720;7.044;2023-04-09T12:45:56;16.10;99.90
10129;DHT22;5104;50.720;7.044;2023-04-09T12:48:23;16.50;99.90
10129;DHT22;5104;50.720;7.044;2023-04-09T12:50:51;16.50;99.90
10129;DHT22;5104;50.720;7.044;2023-04-09T12:53:17;16.30;99.90
10129;DHT22;5104;50.720;7.044;2023-04-09T12:55:45;16.20;99.90
10129;DHT22;5104;50.720;7.044;2023-04-09T12:58:11;16.00;99.90
10129;DHT22;5104;50.720;7.044;2023-04-09T13:00:40;15.70;99.90
10129;DHT22;5104;50.720;7.044;2023-04-09T13:03:07;15.70;99.90
10129;DHT22;5104;50.720;7.044;2023-04-09T13:05:34;16.40;99.90
10129;DHT22;5104;50.720;7.044;2023-04-09T13:08:01;16.90;99.90
10129;DHT22;5104;50.720;7.044;2023-04-09T13:10:28;17.20;99.90
10129;DHT22;5104;50.720;7.044;2023-04-09T13:12:56;17.70;92.10
10129;DHT22;5104;50.720;7.044;2023-04-09T13:15:22;17.30;59.60
10129;DHT22;5104;50.720;7.044;2023-04-09T13:17:51;17.20;66.90
10129;DHT22;5104;50.720;7.044;2023-04-09T13:20:18;17.20;65.70
10129;DHT22;5104;50.720;7.044;2023-04-09T13:22:45;17.20;57.00
10129;DHT22;5104;50.720;7.044;2023-04-09T13:25:13;17.20;58.70
10129;DHT22;5104;50.720;7.044;2023-04-09T13:27:40;17.10;62.90
10129;DHT22;5104;50.720;7.044;2023-04-09T13:30:08;17.30;58.30
10129;DHT22;5104;50.720;7.044;2023-04-09T13:32:34;17.20;55.30
10129;DHT22;5104;50.720;7.044;2023-04-09T13:35:04;16.70;73.00
10129;DHT22;5104;50.720;7.044;2023-04-09T13:37:31;16.40;57.80
10129;DHT22;5104;50.720;7.044;2023-04-09T13:39:58;16.30;64.00
10129;DHT22;5104;50.720;7.044;2023-04-09T13:42:25;16.20;62.20
10129;DHT22;5104;50.720;7.044;2023-04-09T13:44:53;16.30;59.10
10129;DHT22;5104;50.720;7.044;2023-04-09T13:47:21;16.20;82.20
10129;DHT22;5104;50.720;7.044;2023-04-09T13:49:48;16.60;63.20
10129;DHT22;5104;50.720;7.044;2023-04-09T13:52:18;16.90;65.40
10129;DHT22;5104;50.720;7.044;2023-04-09T13:54:45;17.00;60.00
10129;DHT22;5104;50.720;7.044;2023-04-09T13:57:13;17.10;54.80
10129;DHT22;5104;50.720;7.044;2023-04-09T13:59:41;16.90;46.40
10129;DHT22;5104;50.720;7.044;2023-04-09T14:02:08;16.30;47.10
10129;DHT22;5104;50.720;7.044;2023-04-09T14:04:35;16.00;57.40
10129;DHT22;5104;50.720;7.044;2023-04-09T14:07:02;16.00;73.50
10129;DHT22;5104;50.720;7.044;2023-04-09T14:09:30;15.90;96.80
10129;DHT22;5104;50.720;7.044;2023-04-09T14:11:57;15.80;86.30
10129;DHT22;5104;50.720;7.044;2023-04-09T14:14:24;15.90;77.60
10129;DHT22;5104;50.720;7.044;2023-04-09T14:16:51;15.90;76.90
10129;DHT22;5104;50.720;7.044;2023-04-09T14:19:18;16.10;81.00
10129;DHT22;5104;50.720;7.044;2023-04-09T14:21:45;16.10;79.10
10129;DHT22;5104;50.720;7.044;2023-04-09T14:24:12;16.20;73.70
10129;DHT22;5104;50.720;7.044;2023-04-09T14:26:40;16.30;65.50
10129;DHT22;5104;50.720;7.044;2023-04-09T14:29:07;16.40;87.90
10129;DHT22;5104;50.720;7.044;2023-04-09T14:31:34;15.90;90.80
10129;DHT22;5104;50.720;7.044;2023-04-09T14:34:01;15.80;99.90
10129;DHT22;5104;50.720;7.044;2023-04-09T14:36:28;15.80;98.30
10129;DHT22;5104;50.720;7.044;2023-04-09T14:38:56;16.20;92.10
10129;DHT22;5104;50.720;7.044;2023-04-09T14:41:23;16.60;90.40
10129;DHT22;5104;50.720;7.044;2023-04-09T14:43:51;16.20;72.20
10129;DHT22;5104;50.720;7.044;2023-04-09T14:46:18;16.20;65.10
10129;DHT22;5104;50.720;7.044;2023-04-09T14:48:46;16.10;75.80
10129;DHT22;5104;50.720;7.044;2023-04-09T14:51:13;16.20;78.50
10129;DHT22;5104;50.720;7.044;2023-04-09T14:53:40;16.20;75.80
10129;DHT22;5104;50.720;7.044;2023-04-09T14:56:07;16.30;66.70
10129;DHT22;5104;50.720;7.044;2023-04-09T14:58:34;16.40;90.80
10129;DHT22;5104;50.720;7.044;2023-04-09T15:01:05;16.60;85.10
10129;DHT22;5104;50.720;7.044;2023-04-09T15:03:32;16.70;59.50
10129;DHT22;5104;50.720;7.044;2023-04-09T15:05:59;16.30;64.50
10129;DHT22;5104;50.720;7.044;2023-04-09T15:08:25;16.30;69.90
10129;DHT22;5104;50.720;7.044;2023-04-09T15:10:52;16.50;64.80
10129;DHT22;5104;50.720;7.044;2023-04-09T15:13:19;16.30;51.10
10129;DHT22;5104;50.720;7.044;2023-04-09T15:15:46;16.20;56.20
10129;DHT22;5104;50.720;7.044;2023-04-09T15:18:15;16.10;55.00
10129;DHT22;5104;50.720;7.044;2023-04-09T15:20:42;16.30;67.10
10129;DHT22;5104;50.720;7.044;2023-04-09T15:23:09;16.40;61.20
10129;DHT22;5104;50.720;7.044;2023-04-09T15:25:36;16.50;59.80
10129;DHT22;5104;50.720;7.044;2023-04-09T15:28:06;16.30;44.20
10129;DHT22;5104;50.720;7.044;2023-04-09T15:30:33;16.70;45.30
10129;DHT22;5104;50.720;7.044;2023-04-09T15:33:00;16.70;33.30
10129;DHT22;5104;50.720;7.044;2023-04-09T15:35:29;16.50;43.50
10129;DHT22;5104;50.720;7.044;2023-04-09T15:37:56;16.90;43.70
10129;DHT22;5104;50.720;7.044;2023-04-09T15:40:23;17.30;29.30
10129;DHT22;5104;50.720;7.044;2023-04-09T15:42:50;17.40;17.50
10129;DHT22;5104;50.720;7.044;2023-04-09T15:45:17;17.90;5.80
10129;DHT22;5104;50.720;7.044;2023-04-09T15:47:44;17.70;1.00
10129;DHT22;5104;50.720;7.044;2023-04-09T15:50:12;18.20;2.10
10129;DHT22;5104;50.720;7.044;2023-04-09T15:52:40;17.70;1.00
10129;DHT22;5104;50.720;7.044;2023-04-09T15:55:08;17.20;3.10
10129;DHT22;5104;50.720;7.044;2023-04-09T15:57:35;17.20;6.50
10129;DHT22;5104;50.720;7.044;2023-04-09T16:00:03;17.50;9.50